Time;durP1;ratioP1;P1;durP2;ratioP2;P2;SDS_P1;SDS_P2;PMS_P1;PMS_P2;Temp;Humidity;BMP_temperature;BMP_pressure;BME280_temperature;BME280_humidity;BME280_pressure;Samples;Min_cycle;Max_cycle;Signal;HPM_P1;HPM_P2
2021/12/25 04:29:06;;;;;;;17.08;9.55;;;26.80;99.90;;;;;;5024711;27;2670806;-69
2021/12/25 04:32:00;;;;;;;8.38;7.20;;;26.90;99.90;;;;;;5076351;28;20040;-69
2021/12/25 05:03:36;;;;;;;18.15;13.10;;;27.20;99.90;;;;;;5088987;28;20032;-70
2021/12/25 05:06:00;;;;;;;13.35;9.90;;;27.20;99.90;;;;;;5082104;28;20036;-71
2021/12/25 05:08:26;;;;;;;13.77;11.90;;;27.30;99.90;;;;;;5075324;28;20028;-70
2021/12/25 05:10:54;;;;;;;15.88;10.65;;;27.40;99.90;;;;;;5081008;28;20056;-71
2021/12/25 05:13:21;;;;;;;16.98;11.55;;;27.40;99.90;;;;;;5083957;28;20029;-70
2021/12/25 05:15:48;;;;;;;15.05;11.02;;;27.40;99.90;;;;;;5072961;28;20507;-69
2021/12/25 05:18:15;;;;;;;23.60;13.27;;;27.40;99.90;;;;;;5071331;28;20029;-71
2021/12/25 05:20:42;;;;;;;14.35;10.90;;;27.50;99.90;;;;;;5070970;28;20418;-71
2021/12/25 05:23:09;;;;;;;14.73;11.38;;;27.50;99.90;;;;;;5068113;28;20079;-73
2021/12/25 05:25:36;;;;;;;15.77;11.55;;;27.70;99.90;;;;;;5072363;28;20580;-71
2021/12/25 05:28:03;;;;;;;16.38;10.43;;;27.70;99.90;;;;;;5069483;28;20045;-72
2021/12/25 05:30:30;;;;;;;12.75;10.68;;;27.80;99.90;;;;;;5069924;28;21453;-70
2021/12/25 05:32:58;;;;;;;11.90;10.30;;;27.90;99.90;;;;;;5077709;28;20067;-73
2021/12/25 05:35:24;;;;;;;11.75;9.80;;;28.00;99.90;;;;;;5071083;28;20031;-68
2021/12/25 05:37:57;;;;;;;10.52;9.45;;;28.10;99.90;;;;;;5069795;28;20033;-71
2021/12/25 05:40:24;;;;;;;11.02;9.80;;;28.10;99.90;;;;;;5063022;28;20036;-70
2021/12/25 05:42:51;;;;;;;20.73;11.73;;;28.10;99.90;;;;;;5056460;28;20077;-68
2021/12/25 05:45:18;;;;;;;16.17;11.77;;;28.20;99.90;;;;;;5061629;28;20033;-70
2021/12/25 05:47:45;;;;;;;19.35;12.60;;;28.10;99.90;;;;;;5063333;28;20074;-72
2021/12/25 05:50:12;;;;;;;15.35;11.40;;;28.10;99.90;;;;;;5063637;28;20028;-72
2021/12/25 05:52:38;;;;;;;13.13;10.23;;;28.10;99.90;;;;;;5055988;28;20025;-71
2021/12/25 05:55:05;;;;;;;15.98;11.52;;;28.10;99.90;;;;;;5065394;28;20024;-70
2021/12/25 05:57:32;;;;;;;12.52;11.23;;;28.20;99.90;;;;;;5075085;28;20031;-68
2021/12/25 05:59:58;;;;;;;17.98;10.98;;;28.30;99.90;;;;;;5074492;28;20115;-67
2021/12/25 06:02:25;;;;;;;11.70;9.68;;;28.40;99.90;;;;;;5075413;28;20392;-70
2021/12/25 06:04:52;;;;;;;15.02;10.52;;;28.50;99.90;;;;;;5075614;28;20114;-73
2021/12/25 06:07:18;;;;;;;17.95;11.13;;;28.60;99.90;;;;;;5075036;28;20586;-72
2021/12/25 06:09:45;;;;;;;13.75;10.23;;;28.50;99.90;;;;;;5075672;28;20032;-72
2021/12/25 06:12:14;;;;;;;14.98;11.23;;;28.40;99.90;;;;;;5075302;28;20024;-71
2021/12/25 06:14:43;;;;;;;14.98;10.70;;;28.50;99.90;;;;;;5060956;28;20630;-71
2021/12/25 06:17:10;;;;;;;14.65;10.23;;;28.50;99.90;;;;;;5059599;28;20033;-70
2021/12/25 06:19:36;;;;;;;10.88;9.77;;;28.60;99.90;;;;;;5075453;28;20034;-69
2021/12/25 06:22:03;;;;;;;15.77;10.93;;;28.60;99.90;;;;;;5075139;28;20020;-68
2021/12/25 06:24:31;;;;;;;16.42;12.10;;;28.50;99.90;;;;;;5075027;28;20483;-70
2021/12/25 06:26:57;;;;;;;14.38;10.93;;;28.40;99.90;;;;;;5074511;28;20032;-69
2021/12/25 06:29:24;;;;;;;14.77;11.63;;;28.30;99.90;;;;;;5074857;28;20024;-69
2021/12/25 06:31:52;;;;;;;13.80;11.07;;;28.40;99.90;;;;;;5074250;28;20027;-69
2021/12/25 06:34:20;;;;;;;19.83;11.73;;;28.50;99.90;;;;;;5073770;28;20354;-70
2021/12/25 06:36:47;;;;;;;22.60;12.52;;;28.50;99.90;;;;;;5060674;28;20056;-70
2021/12/25 06:39:15;;;;;;;12.63;10.82;;;28.60;99.90;;;;;;5057477;28;20086;-71
2021/12/25 06:41:43;;;;;;;14.32;10.85;;;28.70;99.90;;;;;;5055237;28;20021;-70
2021/12/25 06:44:10;;;;;;;16.73;11.60;;;28.70;99.90;;;;;;5058504;28;20037;-72
2021/12/25 06:46:37;;;;;;;12.60;10.98;;;28.70;99.90;;;;;;5061589;28;20078;-72
2021/12/25 06:49:04;;;;;;;21.95;11.98;;;28.70;99.90;;;;;;5071136;28;20481;-73
2021/12/25 06:51:34;;;;;;;14.20;11.20;;;28.80;99.90;;;;;;5060883;28;20029;-71
2021/12/25 06:54:02;;;;;;;16.33;11.50;;;28.90;99.90;;;;;;5054444;28;20021;-71
2021/12/25 06:56:29;;;;;;;17.77;12.23;;;29.00;99.90;;;;;;5054207;28;20097;-71
2021/12/25 06:58:56;;;;;;;15.13;12.32;;;29.00;99.90;;;;;;5054696;28;20056;-69
2021/12/25 07:01:23;;;;;;;11.55;8.82;;;29.20;99.90;;;;;;5071663;28;20025;-71
2021/12/25 07:03:50;;;;;;;12.27;10.18;;;29.30;99.90;;;;;;5073823;28;20029;-73
2021/12/25 07:06:17;;;;;;;17.10;11.52;;;29.30;99.90;;;;;;5035615;28;20450;-72
2021/12/25 07:08:43;;;;;;;12.80;10.43;;;29.30;99.90;;;;;;5059850;28;20111;-74
2021/12/25 07:11:10;;;;;;;15.20;11.02;;;29.40;99.90;;;;;;5068156;28;20052;-71
2021/12/25 07:13:37;;;;;;;11.25;9.35;;;29.60;99.90;;;;;;5066728;28;20029;-73
2021/12/25 07:16:03;;;;;;;16.48;10.23;;;29.60;99.90;;;;;;5061017;28;20015;-69
2021/12/25 07:18:30;;;;;;;22.80;12.95;;;29.40;99.90;;;;;;5062431;28;20033;-71
2021/12/25 07:20:57;;;;;;;17.25;10.98;;;29.50;99.90;;;;;;5056276;28;20116;-73
2021/12/25 07:23:24;;;;;;;13.25;10.38;;;29.50;99.90;;;;;;5053419;28;20532;-73
2021/12/25 07:25:51;;;;;;;22.30;11.98;;;29.60;99.90;;;;;;5053322;28;20377;-68
2021/12/25 07:28:18;;;;;;;42.95;34.72;;;29.70;99.90;;;;;;5057540;28;20460;-70
2021/12/25 07:30:44;;;;;;;11.80;7.47;;;29.70;99.90;;;;;;5058871;28;20473;-70
2021/12/25 07:33:11;;;;;;;18.33;9.07;;;29.90;99.90;;;;;;5055293;28;20063;-71
2021/12/25 07:35:38;;;;;;;18.27;11.38;;;29.80;99.90;;;;;;5053122;28;20075;-69
2021/12/25 07:38:05;;;;;;;10.55;9.23;;;29.80;99.90;;;;;;5054832;28;20025;-68
2021/12/25 07:40:31;;;;;;;14.77;9.55;;;29.60;99.90;;;;;;5053193;28;20118;-69
2021/12/25 07:42:58;;;;;;;10.90;9.50;;;29.60;99.90;;;;;;5053232;28;20086;-71
2021/12/25 07:45:25;;;;;;;11.88;9.23;;;29.60;99.90;;;;;;5056248;28;20024;-70
2021/12/25 07:47:59;;;;;;;12.63;9.85;;;29.50;99.90;;;;;;5044716;28;20422;-69
2021/12/25 07:50:27;;;;;;;20.52;10.32;;;29.50;99.90;;;;;;5059819;28;20823;-69
2021/12/25 07:52:54;;;;;;;18.92;10.43;;;29.50;99.90;;;;;;5060471;28;20032;-69
2021/12/25 07:55:21;;;;;;;12.75;9.82;;;29.50;99.90;;;;;;5060469;28;20027;-70
2021/12/25 07:57:47;;;;;;;12.00;9.00;;;29.50;99.90;;;;;;5041958;28;20221;-70
2021/12/25 08:00:16;;;;;;;14.50;10.60;;;29.50;99.90;;;;;;5059750;28;20036;-71
2021/12/25 08:02:45;;;;;;;14.43;11.40;;;29.70;99.90;;;;;;5059582;28;20060;-72
2021/12/25 08:05:12;;;;;;;17.83;13.13;;;29.70;99.90;;;;;;5059061;28;20025;-70
2021/12/25 08:07:39;;;;;;;18.77;12.23;;;29.80;99.90;;;;;;5053803;28;20074;-69
2021/12/25 08:10:13;;;;;;;14.23;11.88;;;29.70;99.90;;;;;;5060632;28;20017;-70
2021/12/25 08:12:48;;;;;;;22.00;13.10;;;29.70;99.90;;;;;;5057445;28;20040;-69
2021/12/25 08:15:17;;;;;;;15.88;11.27;;;29.70;99.90;;;;;;5064099;28;20071;-69
2021/12/25 08:17:44;;;;;;;15.30;12.95;;;29.60;99.90;;;;;;5067012;28;20596;-68
2021/12/25 08:20:12;;;;;;;17.85;11.38;;;29.60;99.90;;;;;;5057802;28;20032;-70
2021/12/25 08:22:40;;;;;;;14.05;11.20;;;29.60;99.90;;;;;;5057593;28;20025;-70
2021/12/25 08:25:08;;;;;;;15.70;11.05;;;29.60;99.90;;;;;;5055711;28;20497;-68
2021/12/25 08:27:35;;;;;;;12.95;9.48;;;29.50;99.90;;;;;;5061921;28;20044;-71
2021/12/25 08:30:06;;;;;;;12.52;10.65;;;29.50;99.90;;;;;;5064988;28;20069;-73
2021/12/25 08:32:34;;;;;;;15.10;10.37;;;29.60;99.90;;;;;;5058968;28;20017;-69
2021/12/25 08:35:00;;;;;;;10.70;8.93;;;29.60;99.90;;;;;;5072987;28;20048;-69
2021/12/25 08:37:27;;;;;;;10.18;8.70;;;29.60;99.90;;;;;;5073141;28;20028;-70
2021/12/25 08:39:54;;;;;;;15.43;9.23;;;29.70;99.90;;;;;;5073107;28;20032;-69
2021/12/25 08:42:22;;;;;;;8.25;7.32;;;29.70;99.90;;;;;;5054181;28;20491;-70
2021/12/25 08:47:27;;;;;;;16.25;9.82;;;29.70;99.90;;;;;;5063037;28;20150;-70
2021/12/25 08:49:54;;;;;;;14.60;9.60;;;29.60;99.90;;;;;;5063074;28;20025;-74
2021/12/25 08:52:23;;;;;;;10.75;8.52;;;29.60;99.90;;;;;;5054055;28;20017;-69
2021/12/25 08:54:50;;;;;;;10.90;9.82;;;29.60;99.90;;;;;;5054637;28;20029;-71
2021/12/25 08:57:19;;;;;;;14.15;10.82;;;29.60;99.90;;;;;;5056720;28;20052;-70
2021/12/25 08:59:47;;;;;;;13.60;9.95;;;29.60;99.90;;;;;;5055030;28;20028;-72
2021/12/25 09:02:16;;;;;;;14.95;10.13;;;29.60;99.90;;;;;;5032970;28;20492;-70
2021/12/25 09:04:46;;;;;;;17.08;10.75;;;29.60;99.90;;;;;;5057441;28;20037;-69
2021/12/25 09:07:14;;;;;;;11.43;9.45;;;29.60;99.90;;;;;;5056625;28;20061;-69
2021/12/25 09:09:41;;;;;;;15.35;10.80;;;29.50;99.90;;;;;;5050351;28;20066;-71
2021/12/25 09:12:13;;;;;;;17.95;13.32;;;29.50;99.90;;;;;;5058218;28;20055;-70
2021/12/25 09:14:39;;;;;;;16.00;11.97;;;29.20;99.90;;;;;;5062884;28;20025;-70
2021/12/25 09:17:08;;;;;;;18.95;9.77;;;28.70;99.90;;;;;;5058797;28;20029;-69
2021/12/25 09:19:35;;;;;;;32.28;11.80;;;28.40;99.90;;;;;;5054236;28;20017;-68
2021/12/25 09:22:02;;;;;;;27.50;12.82;;;28.00;99.90;;;;;;5053664;28;20091;-68
2021/12/25 09:24:29;;;;;;;24.70;13.38;;;27.60;99.90;;;;;;5054324;28;20550;-71
2021/12/25 09:26:56;;;;;;;25.30;12.95;;;27.10;99.90;;;;;;5054068;28;20033;-71
2021/12/25 09:29:23;;;;;;;30.75;14.98;;;26.70;99.90;;;;;;5059346;28;20029;-72
2021/12/25 09:31:49;;;;;;;41.75;17.20;;;26.60;99.90;;;;;;5058793;28;20024;-73
2021/12/25 09:34:16;;;;;;;57.40;18.70;;;26.50;99.90;;;;;;5057249;28;20044;-74
2021/12/25 09:36:43;;;;;;;32.00;20.73;;;26.40;99.90;;;;;;5057526;28;20478;-72
2021/12/25 09:39:10;;;;;;;32.17;19.63;;;26.50;99.90;;;;;;5056089;28;20032;-70
2021/12/25 09:41:37;;;;;;;31.45;21.80;;;26.40;99.90;;;;;;5054387;28;20434;-71
2021/12/25 09:44:05;;;;;;;28.00;21.45;;;26.50;99.90;;;;;;5058565;28;20021;-71
2021/12/25 09:46:32;;;;;;;21.70;17.00;;;26.50;99.90;;;;;;5057282;28;20413;-70
2021/12/25 09:48:59;;;;;;;24.27;19.08;;;26.40;99.90;;;;;;5059909;28;20083;-69
2021/12/25 09:51:26;;;;;;;17.60;13.25;;;26.60;99.90;;;;;;5062456;28;20021;-71
2021/12/25 09:54:04;;;;;;;13.93;10.65;;;26.50;99.90;;;;;;5058437;28;20103;-70
2021/12/25 09:56:31;;;;;;;14.05;8.82;;;26.60;99.90;;;;;;5055159;28;20029;-70
2021/12/25 09:58:58;;;;;;;10.40;7.30;;;26.50;99.90;;;;;;5054528;28;20121;-70
2021/12/25 10:01:33;;;;;;;10.77;8.07;;;26.50;99.90;;;;;;5054430;28;20021;-70
2021/12/25 10:04:00;;;;;;;8.50;7.18;;;26.40;99.90;;;;;;5054880;28;20024;-71
2021/12/25 10:06:33;;;;;;;9.95;7.60;;;26.30;99.90;;;;;;5055046;28;20044;-70
2021/12/25 10:09:13;;;;;;;9.32;6.78;;;26.40;99.90;;;;;;5054181;28;20057;-69
2021/12/25 10:11:58;;;;;;;17.83;8.57;;;26.50;99.90;;;;;;5054687;28;20029;-70
2021/12/25 10:14:25;;;;;;;22.38;9.38;;;26.40;99.90;;;;;;5054978;28;20028;-72
2021/12/25 10:16:52;;;;;;;18.60;7.32;;;26.50;99.90;;;;;;5054282;28;20104;-71
2021/12/25 10:19:21;;;;;;;11.15;7.65;;;26.50;99.90;;;;;;5053951;28;20496;-69
2021/12/25 10:22:02;;;;;;;10.90;8.02;;;26.50;99.90;;;;;;5054363;28;20389;-70
2021/12/25 10:24:29;;;;;;;21.35;9.98;;;26.50;99.90;;;;;;5054393;28;20029;-71
2021/12/25 10:27:12;;;;;;;14.45;9.85;;;26.50;99.90;;;;;;5054045;28;20386;-68
2021/12/25 10:29:38;;;;;;;;;;;26.50;99.90;;;;;;5055991;28;20100;-68
2021/12/25 10:32:23;;;;;;;11.52;8.65;;;26.50;99.90;;;;;;5056741;28;19915;-69
2021/12/25 10:34:53;;;;;;;13.75;9.50;;;26.50;99.90;;;;;;5066073;28;20033;-69
2021/12/25 10:37:22;;;;;;;19.02;10.13;;;26.50;99.90;;;;;;5054689;28;20267;-68
2021/12/25 10:39:50;;;;;;;19.98;11.82;;;26.50;99.90;;;;;;5053880;28;20040;-71
2021/12/25 10:42:20;;;;;;;25.88;13.48;;;26.50;99.90;;;;;;5054235;28;20024;-70
2021/12/25 10:44:54;;;;;;;78.50;36.58;;;26.50;99.90;;;;;;5054103;28;20032;-71
2021/12/25 10:47:22;;;;;;;69.00;34.40;;;26.40;99.90;;;;;;5068405;28;20028;-70
2021/12/25 10:50:10;;;;;;;77.57;33.30;;;26.40;99.90;;;;;;5065119;28;20025;-70
2021/12/25 10:52:41;;;;;;;41.97;21.92;;;26.40;99.90;;;;;;5054886;28;20020;-69
2021/12/25 10:55:19;;;;;;;29.77;17.42;;;26.50;99.90;;;;;;5054666;28;20025;-67
2021/12/25 10:57:52;;;;;;;20.67;14.48;;;26.50;99.90;;;;;;5055002;28;20036;-70
2021/12/25 11:00:22;;;;;;;21.58;16.58;;;26.50;99.90;;;;;;5054281;28;20056;-69
2021/12/25 11:02:57;;;;;;;22.48;16.27;;;26.40;99.90;;;;;;5053657;28;20055;-69
2021/12/25 11:05:29;;;;;;;39.42;33.33;;;26.50;99.90;;;;;;5055596;28;20024;-68
2021/12/25 11:08:07;;;;;;;39.90;31.47;;;26.40;99.90;;;;;;5060096;28;20404;-69
2021/12/25 11:10:45;;;;;;;45.05;35.88;;;26.40;99.90;;;;;;5058033;28;20039;-70
2021/12/25 11:13:21;;;;;;;100.32;79.32;;;26.40;99.90;;;;;;5055563;28;20078;-69
2021/12/25 11:15:56;;;;;;;53.78;43.92;;;26.40;99.90;;;;;;5052984;28;20473;-70
2021/12/25 11:18:23;;;;;;;48.53;34.95;;;26.40;99.90;;;;;;5053735;28;20041;-69
2021/12/25 11:20:51;;;;;;;64.40;48.20;;;26.40;99.90;;;;;;5054879;28;20024;-70
2021/12/25 11:23:17;;;;;;;191.98;149.38;;;26.40;99.90;;;;;;5053671;28;20017;-68
2021/12/25 11:25:45;;;;;;;190.48;146.48;;;26.40;99.90;;;;;;5053559;28;20469;-69
2021/12/25 11:28:14;;;;;;;253.50;183.65;;;26.40;99.90;;;;;;5054884;28;20055;-69
2021/12/25 11:30:45;;;;;;;152.77;118.68;;;26.40;99.90;;;;;;5055234;28;20387;-69
2021/12/25 11:33:12;;;;;;;140.60;113.60;;;26.40;99.90;;;;;;5053390;28;20025;-67
2021/12/25 11:35:40;;;;;;;217.30;168.55;;;26.40;99.90;;;;;;5052381;28;20156;-68
2021/12/25 11:38:09;;;;;;;63.20;49.00;;;26.20;99.90;;;;;;5054164;28;20024;-68
2021/12/25 11:40:41;;;;;;;29.00;22.17;;;26.30;99.90;;;;;;5052781;28;20021;-69
2021/12/25 11:43:08;;;;;;;28.90;21.27;;;26.30;99.90;;;;;;5052932;28;20040;-68
2021/12/25 11:45:40;;;;;;;24.67;22.05;;;26.30;99.90;;;;;;5052315;28;20478;-70
2021/12/25 11:48:21;;;;;;;49.50;37.75;;;26.30;99.90;;;;;;5052894;28;20121;-67
2021/12/25 11:50:51;;;;;;;33.63;26.08;;;26.30;99.90;;;;;;5051759;28;20048;-70
2021/12/25 11:53:41;;;;;;;31.83;25.05;;;26.40;99.90;;;;;;5052460;28;20480;-69
2021/12/25 11:58:49;;;;;;;29.00;24.48;;;26.30;99.90;;;;;;5052255;28;20024;-69
2021/12/25 12:01:30;;;;;;;27.63;23.02;;;26.30;99.90;;;;;;5051477;28;20028;-68
2021/12/25 12:04:11;;;;;;;28.65;24.98;;;26.30;99.90;;;;;;5052443;28;20025;-69
2021/12/25 12:06:46;;;;;;;36.15;30.45;;;26.30;99.90;;;;;;5052056;28;20075;-70
2021/12/25 12:09:21;;;;;;;51.08;42.90;;;26.20;99.90;;;;;;5052250;28;20052;-72
2021/12/25 12:11:51;;;;;;;35.28;31.42;;;26.20;99.90;;;;;;5051624;28;20112;-72
2021/12/25 12:14:27;;;;;;;42.97;36.70;;;26.20;99.90;;;;;;5051816;28;20017;-73
2021/12/25 12:17:02;;;;;;;51.47;41.42;;;26.20;99.90;;;;;;5065727;28;20116;-71
2021/12/25 12:19:41;;;;;;;41.47;35.63;;;26.30;99.90;;;;;;5051912;28;20108;-69
2021/12/25 12:25:20;;;;;;;44.20;36.90;;;26.40;99.90;;;;;;5055316;28;20021;-72
2021/12/25 12:27:57;;;;;;;41.03;34.65;;;26.30;99.90;;;;;;5056312;28;20037;-71
2021/12/25 12:30:45;;;;;;;39.00;31.77;;;26.30;99.90;;;;;;5054064;28;20021;-69
2021/12/25 12:33:12;;;;;;;40.38;33.42;;;26.30;99.90;;;;;;5051140;28;20472;-71
2021/12/25 12:35:41;;;;;;;34.28;29.92;;;26.20;99.90;;;;;;5050868;28;20086;-70
2021/12/25 12:38:36;;;;;;;51.10;36.45;;;26.20;99.90;;;;;;5056997;28;20047;-73
2021/12/25 12:41:27;;;;;;;37.15;30.25;;;26.30;99.90;;;;;;5057919;28;20039;-72
2021/12/25 12:44:17;;;;;;;35.75;27.38;;;26.30;99.90;;;;;;5055588;28;20416;-71
2021/12/25 12:46:56;;;;;;;37.08;29.90;;;26.30;99.90;;;;;;5072446;28;20107;-70
2021/12/25 12:49:35;;;;;;;38.58;31.45;;;26.30;99.90;;;;;;5074556;28;20047;-72
2021/12/25 12:52:13;;;;;;;38.47;29.75;;;26.40;99.90;;;;;;5064633;28;20021;-71
2021/12/25 12:54:53;;;;;;;37.55;28.95;;;26.40;99.90;;;;;;5056868;28;20048;-71
2021/12/25 12:57:22;;;;;;;39.70;27.15;;;26.40;99.90;;;;;;5056699;28;20033;-71
2021/12/25 12:59:53;;;;;;;29.63;25.95;;;26.30;99.90;;;;;;5067618;28;20067;-71
2021/12/25 13:02:22;;;;;;;33.90;26.52;;;26.30;99.90;;;;;;5070483;28;20484;-71
2021/12/25 13:04:52;;;;;;;36.53;29.80;;;26.30;99.90;;;;;;5067621;28;20064;-70
2021/12/25 13:07:22;;;;;;;50.65;42.88;;;26.30;99.90;;;;;;5066981;28;20055;-68
2021/12/25 13:10:15;;;;;;;29.95;24.85;;;26.40;99.90;;;;;;5053354;28;20033;-70
2021/12/25 13:15:14;;;;;;;30.75;23.05;;;26.40;99.90;;;;;;5065127;28;20103;-69
2021/12/25 13:17:48;;;;;;;;;;;26.40;99.90;;;;;;5072311;28;20025;-69
2021/12/25 13:20:16;;;;;;;32.88;26.00;;;26.40;99.90;;;;;;5073796;28;19955;-71
2021/12/25 13:22:42;;;;;;;39.30;28.63;;;26.40;99.90;;;;;;5075115;28;20082;-70
2021/12/25 13:25:15;;;;;;;36.40;29.33;;;26.30;99.90;;;;;;5075196;28;20492;-73
2021/12/25 13:27:42;;;;;;;37.17;27.35;;;26.30;99.90;;;;;;5074986;28;20051;-69
2021/12/25 13:30:17;;;;;;;38.08;27.25;;;26.30;99.90;;;;;;5074378;28;20473;-70
2021/12/25 13:32:44;;;;;;;36.65;29.02;;;26.30;99.90;;;;;;5070499;28;20060;-70
2021/12/25 13:35:15;;;;;;;36.70;28.23;;;26.30;99.90;;;;;;5073343;28;20108;-69
2021/12/25 13:37:42;;;;;;;37.90;28.03;;;26.20;99.90;;;;;;5072480;28;20500;-72
2021/12/25 13:40:14;;;;;;;31.98;26.83;;;26.20;99.90;;;;;;5058955;28;20107;-70
2021/12/25 13:42:42;;;;;;;30.33;24.08;;;26.20;99.90;;;;;;5066091;28;20131;-72
2021/12/25 13:45:09;;;;;;;35.78;24.17;;;26.20;99.90;;;;;;5066012;28;20041;-69
2021/12/25 13:47:39;;;;;;;30.38;21.90;;;26.10;99.90;;;;;;5070573;28;20024;-71
2021/12/25 13:50:09;;;;;;;25.90;20.30;;;26.10;99.90;;;;;;5069972;28;20071;-74
2021/12/25 13:52:40;;;;;;;30.60;22.45;;;26.00;99.90;;;;;;5068373;28;20417;-71
2021/12/25 13:55:10;;;;;;;33.65;22.73;;;26.10;99.90;;;;;;5070220;28;20021;-70
2021/12/25 13:57:42;;;;;;;30.85;21.70;;;26.10;99.90;;;;;;5070707;28;20024;-73
2021/12/25 14:00:17;;;;;;;41.47;25.70;;;26.10;99.90;;;;;;5071014;28;20033;-69
2021/12/25 14:02:49;;;;;;;27.00;21.17;;;26.20;99.90;;;;;;5073459;28;20047;-69
2021/12/25 14:05:17;;;;;;;31.90;23.55;;;26.20;99.90;;;;;;5075596;28;20047;-70
2021/12/25 14:07:46;;;;;;;40.55;23.88;;;26.20;99.90;;;;;;5075513;28;20053;-70
2021/12/25 14:10:17;;;;;;;33.40;25.48;;;26.20;99.90;;;;;;5064845;28;20115;-69
2021/12/25 14:12:53;;;;;;;44.72;28.10;;;26.20;99.90;;;;;;5062206;28;20024;-70
2021/12/25 14:15:23;;;;;;;44.33;27.27;;;26.20;99.90;;;;;;5058388;28;20013;-72
2021/12/25 14:17:50;;;;;;;40.95;26.23;;;26.20;99.90;;;;;;5054616;28;20029;-69
2021/12/25 14:20:22;;;;;;;37.20;26.38;;;26.10;99.90;;;;;;5054317;28;20469;-69
2021/12/25 14:22:58;;;;;;;41.88;28.42;;;26.20;99.90;;;;;;5056464;28;20032;-67
2021/12/25 14:25:29;;;;;;;42.15;28.50;;;26.20;99.90;;;;;;5054247;28;20100;-73
2021/12/25 14:28:13;;;;;;;61.67;40.10;;;26.20;99.90;;;;;;5054028;28;20321;-69
2021/12/25 14:30:44;;;;;;;42.00;28.83;;;26.20;99.90;;;;;;5071032;28;20419;-68
2021/12/25 14:33:17;;;;;;;42.23;30.60;;;26.10;99.90;;;;;;5064436;28;20017;-67
2021/12/25 14:35:44;;;;;;;42.40;30.85;;;26.10;99.90;;;;;;5055490;28;20485;-68
2021/12/25 14:38:11;;;;;;;44.90;35.42;;;26.10;99.90;;;;;;5054706;28;20031;-66
2021/12/25 14:40:45;;;;;;;47.83;32.60;;;26.10;99.90;;;;;;5053624;28;20016;-66
2021/12/25 14:43:15;;;;;;;39.58;32.30;;;26.10;99.90;;;;;;5068941;28;20031;-65
2021/12/25 14:45:49;;;;;;;37.28;31.13;;;26.10;99.90;;;;;;5059957;28;20385;-68
2021/12/25 14:48:27;;;;;;;44.55;29.25;;;26.10;99.90;;;;;;5072596;28;20326;-68
2021/12/25 14:50:56;;;;;;;40.30;29.73;;;26.10;99.90;;;;;;5074243;28;20027;-67
2021/12/25 14:53:23;;;;;;;40.45;31.83;;;26.10;99.90;;;;;;5074224;28;20491;-67
2021/12/25 14:55:53;;;;;;;45.40;33.80;;;26.10;99.90;;;;;;5074639;28;20516;-65
2021/12/25 14:58:26;;;;;;;41.95;33.35;;;26.10;99.90;;;;;;5065956;28;20029;-67
2021/12/25 15:01:06;;;;;;;47.20;33.40;;;26.00;99.90;;;;;;5058694;28;20074;-68
2021/12/25 15:03:33;;;;;;;49.47;37.08;;;26.10;99.90;;;;;;5067110;28;20374;-66
2021/12/25 15:06:00;;;;;;;65.45;37.88;;;26.10;99.90;;;;;;5074299;28;20032;-66
2021/12/25 15:08:31;;;;;;;52.38;35.92;;;26.10;99.90;;;;;;5074152;28;20043;-67
2021/12/25 15:11:16;;;;;;;46.50;35.10;;;26.00;99.90;;;;;;5074261;28;20107;-67
2021/12/25 15:13:56;;;;;;;53.30;32.53;;;25.90;99.90;;;;;;5060116;28;20025;-67
2021/12/25 15:16:35;;;;;;;41.65;32.83;;;25.90;99.90;;;;;;5060250;28;20027;-70
2021/12/25 15:19:02;;;;;;;46.00;33.30;;;26.00;99.90;;;;;;5071291;28;20102;-68
2021/12/25 15:21:29;;;;;;;56.75;32.20;;;25.90;99.90;;;;;;5072485;28;20032;-68
2021/12/25 15:24:09;;;;;;;60.00;33.17;;;25.90;99.90;;;;;;5064374;28;20025;-67
2021/12/25 15:26:41;;;;;;;63.13;35.00;;;26.00;99.90;;;;;;5072423;28;20435;-67
2021/12/25 15:29:08;;;;;;;62.88;33.38;;;26.00;99.90;;;;;;5069265;28;20052;-67
2021/12/25 15:31:35;;;;;;;61.90;34.10;;;26.00;99.90;;;;;;5072267;28;20050;-67
2021/12/25 15:34:09;;;;;;;45.38;34.45;;;26.00;99.90;;;;;;5064580;28;20028;-66
2021/12/25 15:36:42;;;;;;;46.53;32.67;;;26.10;99.90;;;;;;5071746;28;20101;-67
2021/12/25 15:39:15;;;;;;;46.63;33.22;;;26.00;99.90;;;;;;5071813;28;20115;-67
2021/12/25 15:41:45;;;;;;;48.83;31.23;;;26.00;99.90;;;;;;5072548;28;20044;-67
2021/12/25 15:44:14;;;;;;;48.67;33.47;;;25.90;99.90;;;;;;5063939;28;20032;-67
2021/12/25 15:46:41;;;;;;;49.28;32.53;;;25.90;99.90;;;;;;5065187;28;20508;-68
2021/12/25 15:49:08;;;;;;;48.15;31.75;;;25.90;99.90;;;;;;5069894;28;20077;-68
2021/12/25 15:51:35;;;;;;;50.13;33.00;;;26.00;99.90;;;;;;5071552;28;20023;-67
2021/12/25 15:54:03;;;;;;;48.08;31.52;;;25.90;99.90;;;;;;5062698;28;20624;-67
2021/12/25 15:56:30;;;;;;;43.95;32.58;;;25.90;99.90;;;;;;5058286;28;20021;-67
2021/12/25 15:58:58;;;;;;;40.50;32.00;;;25.80;99.90;;;;;;5063905;28;20055;-68
2021/12/25 16:01:25;;;;;;;46.88;34.35;;;25.90;99.90;;;;;;5056207;28;20021;-67
2021/12/25 16:03:53;;;;;;;48.75;36.03;;;25.90;99.90;;;;;;5055004;28;20386;-67
2021/12/25 16:33:41;;;;;;;64.85;32.47;;;25.50;99.90;;;;;;5119771;27;20884;-71
2021/12/25 16:36:08;;;;;;;41.42;31.55;;;25.90;99.90;;;;;;5104324;27;20030;-71
2021/12/25 16:38:36;;;;;;;49.25;32.63;;;26.00;99.90;;;;;;5101373;28;20054;-72
2021/12/25 16:41:06;;;;;;;48.72;30.85;;;26.00;99.90;;;;;;5101555;28;20032;-70
2021/12/25 16:43:34;;;;;;;47.67;34.28;;;26.10;99.90;;;;;;5102511;28;20027;-72
2021/12/25 16:46:04;;;;;;;49.45;37.00;;;26.10;99.90;;;;;;5102168;28;20136;-72
2021/12/25 16:48:31;;;;;;;46.50;33.03;;;25.90;99.90;;;;;;5101272;28;20042;-70
2021/12/25 16:50:59;;;;;;;53.42;37.03;;;25.90;99.90;;;;;;5103062;28;20024;-71
2021/12/25 16:53:26;;;;;;;47.30;35.88;;;25.90;99.90;;;;;;5104833;28;20027;-71
2021/12/25 16:55:54;;;;;;;45.03;33.75;;;25.90;99.90;;;;;;5110868;28;20023;-68
2021/12/25 16:58:21;;;;;;;38.53;30.60;;;25.90;99.90;;;;;;5113198;28;20095;-69
2021/12/25 17:00:49;;;;;;;47.10;31.27;;;25.90;99.90;;;;;;5107154;28;20024;-70
2021/12/25 17:03:15;;;;;;;56.67;36.15;;;26.00;99.90;;;;;;5106665;28;20086;-70
2021/12/25 17:05:46;;;;;;;53.30;35.15;;;25.90;99.90;;;;;;5109668;28;20091;-70
2021/12/25 17:08:13;;;;;;;54.13;34.00;;;25.90;99.90;;;;;;5108724;28;20052;-70
2021/12/25 17:10:40;;;;;;;51.42;35.80;;;25.90;99.90;;;;;;5109475;28;20032;-69
2021/12/25 17:13:07;;;;;;;58.15;35.25;;;25.90;99.90;;;;;;5108488;28;20020;-70
2021/12/25 17:15:37;;;;;;;49.42;35.67;;;25.90;99.90;;;;;;5108809;28;20048;-69
2021/12/25 17:18:06;;;;;;;54.78;33.85;;;25.90;99.90;;;;;;5110141;28;20493;-68
2021/12/25 17:20:35;;;;;;;44.38;33.92;;;25.90;99.90;;;;;;5109369;28;20085;-71
2021/12/25 17:23:03;;;;;;;48.30;32.17;;;25.80;99.90;;;;;;5110227;28;20145;-72
2021/12/25 17:25:30;;;;;;;43.47;32.85;;;25.80;99.90;;;;;;5108035;28;20024;-74
2021/12/25 17:27:57;;;;;;;44.55;31.73;;;25.80;99.90;;;;;;5109168;28;20035;-73
2021/12/25 17:30:29;;;;;;;43.22;31.60;;;25.90;99.90;;;;;;5107300;28;20062;-72
2021/12/25 17:32:56;;;;;;;46.70;30.13;;;25.90;99.90;;;;;;5104859;28;20040;-73
2021/12/25 17:35:22;;;;;;;47.03;29.00;;;25.90;99.90;;;;;;5095312;28;20039;-72
2021/12/25 17:37:49;;;;;;;47.47;30.70;;;26.00;99.90;;;;;;5093668;28;20028;-70
2021/12/25 17:40:19;;;;;;;55.05;34.10;;;26.00;99.90;;;;;;5094691;28;20540;-69
2021/12/25 17:42:46;;;;;;;57.55;36.05;;;25.90;99.90;;;;;;5092972;28;20393;-71
2021/12/25 17:45:22;;;;;;;52.03;35.38;;;25.80;99.90;;;;;;5091723;28;20100;-70
2021/12/25 17:47:50;;;;;;;43.55;28.60;;;25.80;99.90;;;;;;5088206;28;20055;-70
2021/12/25 17:50:30;;;;;;;51.30;34.33;;;25.80;99.90;;;;;;5093297;22;20164;-70
2021/12/25 17:52:58;;;;;;;56.78;38.47;;;25.80;99.90;;;;;;5054986;28;20071;-71
2021/12/25 17:55:25;;;;;;;61.88;40.15;;;25.80;99.90;;;;;;5055335;28;20025;-71
2021/12/25 17:57:53;;;;;;;58.80;38.00;;;25.70;99.90;;;;;;5054212;28;20488;-70
2021/12/25 18:00:24;;;;;;;56.53;40.22;;;25.70;99.90;;;;;;5055234;28;20021;-71
2021/12/25 18:02:51;;;;;;;61.17;39.95;;;25.70;99.90;;;;;;5055525;28;20117;-71
2021/12/25 18:05:18;;;;;;;50.30;34.15;;;25.70;99.90;;;;;;5054959;28;20463;-72
2021/12/25 18:07:45;;;;;;;45.85;34.95;;;25.80;99.90;;;;;;5055480;28;20033;-71
2021/12/25 18:10:14;;;;;;;45.17;32.80;;;25.80;99.90;;;;;;5056042;28;20033;-72
2021/12/25 18:12:41;;;;;;;43.83;34.42;;;25.90;99.90;;;;;;5052256;28;20131;-72
2021/12/25 18:15:11;;;;;;;57.22;40.15;;;25.90;99.90;;;;;;5058778;28;20478;-73
2021/12/25 18:17:39;;;;;;;61.20;41.15;;;25.90;99.90;;;;;;5060287;28;20032;-73